sensor_id;sensor_type;location;lat;lon;timestamp;P1;durP1;ratioP1;P2;durP2;ratioP2
52180;SDS011;38158;53.338;6.514;2023-05-10T00:00:46;12.63;;;8.32;;
52180;SDS011;38158;53.338;6.514;2023-05-10T00:03:12;11.93;;;9.23;;
52180;SDS011;38158;53.338;6.514;2023-05-10T00:05:38;11.43;;;8.73;;
52180;SDS011;38158;53.338;6.514;2023-05-10T00:08:04;10.40;;;8.00;;
52180;SDS011;38158;53.338;6.514;2023-05-10T00:10:29;11.88;;;8.85;;
52180;SDS011;38158;53.338;6.514;2023-05-10T00:12:55;11.95;;;9.10;;
52180;SDS011;38158;53.338;6.514;2023-05-10T00:15:21;11.82;;;9.75;;
52180;SDS011;38158;53.338;6.514;2023-05-10T00:17:47;13.02;;;9.43;;
52180;SDS011;38158;53.338;6.514;2023-05-10T00:20:12;10.23;;;8.15;;
52180;SDS011;38158;53.338;6.514;2023-05-10T00:22:38;10.88;;;7.10;;
52180;SDS011;38158;53.338;6.514;2023-05-10T00:25:04;11.43;;;7.97;;
52180;SDS011;38158;53.338;6.514;2023-05-10T00:27:31;9.93;;;7.03;;
52180;SDS011;38158;53.338;6.514;2023-05-10T00:29:56;11.45;;;7.60;;
52180;SDS011;38158;53.338;6.514;2023-05-10T00:32:22;14.02;;;8.40;;
52180;SDS011;38158;53.338;6.514;2023-05-10T00:34:48;9.35;;;6.93;;
52180;SDS011;38158;53.338;6.514;2023-05-10T00:37:13;10.73;;;7.53;;
52180;SDS011;38158;53.338;6.514;2023-05-10T00:39:39;10.60;;;6.50;;
52180;SDS011;38158;53.338;6.514;2023-05-10T00:42:05;9.90;;;7.03;;
52180;SDS011;38158;53.338;6.514;2023-05-10T00:44:30;10.65;;;7.43;;
52180;SDS011;38158;53.338;6.514;2023-05-10T00:46:56;11.48;;;7.63;;
52180;SDS011;38158;53.338;6.514;2023-05-10T00:49:22;10.95;;;7.10;;
52180;SDS011;38158;53.338;6.514;2023-05-10T00:51:48;9.35;;;6.88;;
52180;SDS011;38158;53.338;6.514;2023-05-10T00:54:14;10.90;;;7.67;;
52180;SDS011;38158;53.338;6.514;2023-05-10T00:56:41;9.73;;;7.00;;
52180;SDS011;38158;53.338;6.514;2023-05-10T00:59:08;11.32;;;7.40;;
52180;SDS011;38158;53.338;6.514;2023-05-10T01:01:34;11.80;;;8.02;;
52180;SDS011;38158;53.338;6.514;2023-05-10T01:06:26;10.18;;;5.90;;
52180;SDS011;38158;53.338;6.514;2023-05-10T01:08:52;8.63;;;6.13;;
52180;SDS011;38158;53.338;6.514;2023-05-10T01:11:18;8.48;;;6.05;;
52180;SDS011;38158;53.338;6.514;2023-05-10T01:13:44;7.93;;;5.22;;
52180;SDS011;38158;53.338;6.514;2023-05-10T01:16:17;8.10;;;4.40;;
52180;SDS011;38158;53.338;6.514;2023-05-10T01:18:43;7.18;;;4.45;;
52180;SDS011;38158;53.338;6.514;2023-05-10T01:35:50;7.20;;;4.88;;
52180;SDS011;38158;53.338;6.514;2023-05-10T01:38:29;6.70;;;4.47;;
52180;SDS011;38158;53.338;6.514;2023-05-10T01:43:43;7.00;;;4.97;;
52180;SDS011;38158;53.338;6.514;2023-05-10T01:46:16;8.45;;;6.20;;
52180;SDS011;38158;53.338;6.514;2023-05-10T01:48:47;8.20;;;5.35;;
52180;SDS011;38158;53.338;6.514;2023-05-10T01:51:17;8.98;;;5.68;;
52180;SDS011;38158;53.338;6.514;2023-05-10T01:53:47;7.38;;;5.75;;
52180;SDS011;38158;53.338;6.514;2023-05-10T01:58:42;8.13;;;5.15;;
52180;SDS011;38158;53.338;6.514;2023-05-10T02:01:10;8.18;;;6.20;;
52180;SDS011;38158;53.338;6.514;2023-05-10T02:03:37;8.48;;;5.82;;
52180;SDS011;38158;53.338;6.514;2023-05-10T02:06:05;8.07;;;5.60;;
52180;SDS011;38158;53.338;6.514;2023-05-10T02:08:32;9.35;;;6.22;;
52180;SDS011;38158;53.338;6.514;2023-05-10T02:11:00;9.63;;;6.43;;
52180;SDS011;38158;53.338;6.514;2023-05-10T02:13:27;9.32;;;7.18;;
52180;SDS011;38158;53.338;6.514;2023-05-10T02:18:21;8.00;;;5.90;;
52180;SDS011;38158;53.338;6.514;2023-05-10T02:20:49;7.68;;;5.35;;
52180;SDS011;38158;53.338;6.514;2023-05-10T02:23:16;8.93;;;6.45;;
52180;SDS011;38158;53.338;6.514;2023-05-10T02:25:43;8.20;;;6.50;;
52180;SDS011;38158;53.338;6.514;2023-05-10T02:28:11;8.65;;;6.15;;
52180;SDS011;38158;53.338;6.514;2023-05-10T02:33:04;7.78;;;5.93;;
52180;SDS011;38158;53.338;6.514;2023-05-10T02:35:30;8.63;;;6.05;;
52180;SDS011;38158;53.338;6.514;2023-05-10T02:37:58;7.05;;;5.55;;
52180;SDS011;38158;53.338;6.514;2023-05-10T02:40:25;8.20;;;4.93;;
52180;SDS011;38158;53.338;6.514;2023-05-10T02:42:52;6.60;;;5.10;;
52180;SDS011;38158;53.338;6.514;2023-05-10T02:45:22;7.60;;;6.10;;
52180;SDS011;38158;53.338;6.514;2023-05-10T02:47:51;7.80;;;5.30;;
52180;SDS011;38158;53.338;6.514;2023-05-10T02:50:17;9.48;;;6.10;;
52180;SDS011;38158;53.338;6.514;2023-05-10T02:52:49;9.48;;;6.07;;
52180;SDS011;38158;53.338;6.514;2023-05-10T02:55:21;7.85;;;5.82;;
52180;SDS011;38158;53.338;6.514;2023-05-10T02:57:57;8.82;;;6.05;;
52180;SDS011;38158;53.338;6.514;2023-05-10T03:00:25;7.80;;;6.22;;
52180;SDS011;38158;53.338;6.514;2023-05-10T03:02:50;9.52;;;6.75;;
52180;SDS011;38158;53.338;6.514;2023-05-10T03:05:16;10.77;;;6.93;;
52180;SDS011;38158;53.338;6.514;2023-05-10T03:07:43;12.88;;;6.38;;
52180;SDS011;38158;53.338;6.514;2023-05-10T03:10:09;10.85;;;6.40;;
52180;SDS011;38158;53.338;6.514;2023-05-10T03:18:07;13.32;;;7.35;;
52180;SDS011;38158;53.338;6.514;2023-05-10T03:20:43;10.95;;;6.72;;
52180;SDS011;38158;53.338;6.514;2023-05-10T03:23:13;10.40;;;6.78;;
52180;SDS011;38158;53.338;6.514;2023-05-10T03:25:49;11.75;;;6.70;;
52180;SDS011;38158;53.338;6.514;2023-05-10T03:28:16;10.60;;;6.80;;
52180;SDS011;38158;53.338;6.514;2023-05-10T03:33:09;10.75;;;6.72;;
52180;SDS011;38158;53.338;6.514;2023-05-10T03:35:35;11.00;;;7.03;;
52180;SDS011;38158;53.338;6.514;2023-05-10T03:38:01;11.25;;;7.30;;
52180;SDS011;38158;53.338;6.514;2023-05-10T03:40:27;11.88;;;7.53;;
52180;SDS011;38158;53.338;6.514;2023-05-10T03:43:00;12.60;;;7.30;;
52180;SDS011;38158;53.338;6.514;2023-05-10T03:45:26;12.70;;;7.35;;
52180;SDS011;38158;53.338;6.514;2023-05-10T03:47:52;12.05;;;7.78;;
52180;SDS011;38158;53.338;6.514;2023-05-10T03:50:17;11.23;;;7.50;;
52180;SDS011;38158;53.338;6.514;2023-05-10T03:52:43;11.20;;;7.22;;
52180;SDS011;38158;53.338;6.514;2023-05-10T03:55:09;13.40;;;8.45;;
52180;SDS011;38158;53.338;6.514;2023-05-10T03:57:35;10.25;;;7.35;;
52180;SDS011;38158;53.338;6.514;2023-05-10T04:00:01;8.77;;;6.65;;
52180;SDS011;38158;53.338;6.514;2023-05-10T04:02:28;8.60;;;6.53;;
52180;SDS011;38158;53.338;6.514;2023-05-10T04:04:54;8.80;;;6.68;;
52180;SDS011;38158;53.338;6.514;2023-05-10T04:07:20;12.43;;;5.60;;
52180;SDS011;38158;53.338;6.514;2023-05-10T04:09:46;7.90;;;5.88;;
52180;SDS011;38158;53.338;6.514;2023-05-10T04:12:12;8.43;;;5.90;;
52180;SDS011;38158;53.338;6.514;2023-05-10T04:14:38;7.55;;;6.22;;
52180;SDS011;38158;53.338;6.514;2023-05-10T04:17:03;7.78;;;5.88;;
52180;SDS011;38158;53.338;6.514;2023-05-10T04:19:30;8.15;;;5.28;;
52180;SDS011;38158;53.338;6.514;2023-05-10T04:21:56;7.35;;;5.05;;
52180;SDS011;38158;53.338;6.514;2023-05-10T04:24:22;8.43;;;4.68;;
52180;SDS011;38158;53.338;6.514;2023-05-10T04:26:48;5.88;;;4.25;;
52180;SDS011;38158;53.338;6.514;2023-05-10T04:29:14;7.32;;;4.55;;
52180;SDS011;38158;53.338;6.514;2023-05-10T04:31:39;9.35;;;5.25;;
52180;SDS011;38158;53.338;6.514;2023-05-10T04:34:05;7.03;;;5.05;;
52180;SDS011;38158;53.338;6.514;2023-05-10T04:36:31;9.50;;;5.65;;
52180;SDS011;38158;53.338;6.514;2023-05-10T04:38:58;9.23;;;5.15;;
52180;SDS011;38158;53.338;6.514;2023-05-10T04:41:24;9.20;;;5.82;;
52180;SDS011;38158;53.338;6.514;2023-05-10T04:43:50;10.93;;;5.22;;
52180;SDS011;38158;53.338;6.514;2023-05-10T04:46:16;6.95;;;5.18;;
52180;SDS011;38158;53.338;6.514;2023-05-10T04:48:42;8.88;;;5.43;;
52180;SDS011;38158;53.338;6.514;2023-05-10T04:51:07;7.88;;;5.45;;
52180;SDS011;38158;53.338;6.514;2023-05-10T04:53:33;7.72;;;5.57;;
52180;SDS011;38158;53.338;6.514;2023-05-10T04:55:59;7.57;;;4.90;;
52180;SDS011;38158;53.338;6.514;2023-05-10T04:58:24;7.03;;;4.75;;
52180;SDS011;38158;53.338;6.514;2023-05-10T05:00:50;8.25;;;5.40;;
52180;SDS011;38158;53.338;6.514;2023-05-10T05:03:16;7.93;;;4.93;;
52180;SDS011;38158;53.338;6.514;2023-05-10T05:05:43;6.75;;;4.65;;
52180;SDS011;38158;53.338;6.514;2023-05-10T05:10:35;4.97;;;3.50;;
52180;SDS011;38158;53.338;6.514;2023-05-10T05:13:00;4.78;;;2.80;;
52180;SDS011;38158;53.338;6.514;2023-05-10T05:15:26;3.17;;;1.90;;
52180;SDS011;38158;53.338;6.514;2023-05-10T05:17:52;3.00;;;1.60;;
52180;SDS011;38158;53.338;6.514;2023-05-10T05:20:18;2.05;;;1.20;;
52180;SDS011;38158;53.338;6.514;2023-05-10T05:22:44;1.73;;;0.88;;
52180;SDS011;38158;53.338;6.514;2023-05-10T05:25:10;1.25;;;0.70;;
52180;SDS011;38158;53.338;6.514;2023-05-10T05:27:36;1.67;;;0.73;;
52180;SDS011;38158;53.338;6.514;2023-05-10T05:30:02;0.73;;;0.32;;
52180;SDS011;38158;53.338;6.514;2023-05-10T05:32:29;1.88;;;0.55;;
52180;SDS011;38158;53.338;6.514;2023-05-10T05:34:55;0.82;;;0.40;;
52180;SDS011;38158;53.338;6.514;2023-05-10T05:37:21;0.90;;;0.38;;
52180;SDS011;38158;53.338;6.514;2023-05-10T05:39:47;0.85;;;0.50;;
52180;SDS011;38158;53.338;6.514;2023-05-10T05:42:13;1.73;;;0.85;;
52180;SDS011;38158;53.338;6.514;2023-05-10T05:44:39;0.87;;;0.40;;
52180;SDS011;38158;53.338;6.514;2023-05-10T05:47:05;3.22;;;0.38;;
52180;SDS011;38158;53.338;6.514;2023-05-10T05:49:31;0.63;;;0.30;;
52180;SDS011;38158;53.338;6.514;2023-05-10T05:52:00;1.20;;;0.38;;
52180;SDS011;38158;53.338;6.514;2023-05-10T05:54:27;0.80;;;0.50;;
52180;SDS011;38158;53.338;6.514;2023-05-10T05:56:53;0.85;;;0.52;;
52180;SDS011;38158;53.338;6.514;2023-05-10T05:59:20;1.50;;;0.80;;
52180;SDS011;38158;53.338;6.514;2023-05-10T06:01:46;2.03;;;1.10;;
52180;SDS011;38158;53.338;6.514;2023-05-10T06:04:12;2.58;;;1.55;;
52180;SDS011;38158;53.338;6.514;2023-05-10T06:06:38;3.25;;;1.88;;
52180;SDS011;38158;53.338;6.514;2023-05-10T06:09:04;2.53;;;1.48;;
52180;SDS011;38158;53.338;6.514;2023-05-10T06:11:30;3.17;;;1.90;;
52180;SDS011;38158;53.338;6.514;2023-05-10T06:13:57;2.63;;;1.45;;
52180;SDS011;38158;53.338;6.514;2023-05-10T06:16:23;2.80;;;1.73;;
52180;SDS011;38158;53.338;6.514;2023-05-10T06:18:49;4.22;;;2.67;;
52180;SDS011;38158;53.338;6.514;2023-05-10T06:21:15;6.03;;;4.47;;
52180;SDS011;38158;53.338;6.514;2023-05-10T06:23:41;7.10;;;5.90;;
52180;SDS011;38158;53.338;6.514;2023-05-10T06:26:07;8.77;;;6.93;;
52180;SDS011;38158;53.338;6.514;2023-05-10T06:28:32;9.75;;;7.50;;
52180;SDS011;38158;53.338;6.514;2023-05-10T06:30:58;9.65;;;7.55;;
52180;SDS011;38158;53.338;6.514;2023-05-10T06:33:24;8.45;;;6.13;;
52180;SDS011;38158;53.338;6.514;2023-05-10T06:35:50;8.90;;;6.10;;
52180;SDS011;38158;53.338;6.514;2023-05-10T06:38:16;7.85;;;6.00;;
52180;SDS011;38158;53.338;6.514;2023-05-10T06:40:42;8.40;;;6.70;;
52180;SDS011;38158;53.338;6.514;2023-05-10T06:43:08;8.18;;;6.25;;
52180;SDS011;38158;53.338;6.514;2023-05-10T06:45:35;6.85;;;5.72;;
52180;SDS011;38158;53.338;6.514;2023-05-10T06:48:02;6.05;;;4.63;;
52180;SDS011;38158;53.338;6.514;2023-05-10T06:50:27;6.20;;;4.50;;
52180;SDS011;38158;53.338;6.514;2023-05-10T06:52:53;4.78;;;3.40;;
52180;SDS011;38158;53.338;6.514;2023-05-10T06:55:20;4.00;;;3.15;;
52180;SDS011;38158;53.338;6.514;2023-05-10T06:57:46;5.85;;;3.50;;
52180;SDS011;38158;53.338;6.514;2023-05-10T07:00:13;4.67;;;3.60;;
52180;SDS011;38158;53.338;6.514;2023-05-10T07:02:39;4.22;;;3.20;;
52180;SDS011;38158;53.338;6.514;2023-05-10T07:05:05;4.00;;;2.75;;
52180;SDS011;38158;53.338;6.514;2023-05-10T07:07:31;4.93;;;3.35;;
52180;SDS011;38158;53.338;6.514;2023-05-10T07:09:56;5.25;;;3.83;;
52180;SDS011;38158;53.338;6.514;2023-05-10T07:12:23;5.97;;;3.85;;
52180;SDS011;38158;53.338;6.514;2023-05-10T07:14:49;5.32;;;4.00;;
52180;SDS011;38158;53.338;6.514;2023-05-10T07:17:15;5.22;;;3.28;;
52180;SDS011;38158;53.338;6.514;2023-05-10T07:19:40;4.97;;;3.45;;
52180;SDS011;38158;53.338;6.514;2023-05-10T07:22:06;3.50;;;2.55;;
52180;SDS011;38158;53.338;6.514;2023-05-10T07:24:32;4.55;;;2.97;;
52180;SDS011;38158;53.338;6.514;2023-05-10T07:26:58;4.25;;;3.03;;
52180;SDS011;38158;53.338;6.514;2023-05-10T07:29:24;4.40;;;2.90;;
52180;SDS011;38158;53.338;6.514;2023-05-10T07:31:50;4.25;;;2.72;;
52180;SDS011;38158;53.338;6.514;2023-05-10T07:34:16;4.47;;;2.85;;
52180;SDS011;38158;53.338;6.514;2023-05-10T07:36:42;3.25;;;2.20;;
52180;SDS011;38158;53.338;6.514;2023-05-10T07:39:07;3.13;;;2.15;;
52180;SDS011;38158;53.338;6.514;2023-05-10T07:41:33;3.75;;;2.45;;
52180;SDS011;38158;53.338;6.514;2023-05-10T07:43:59;3.75;;;2.55;;
52180;SDS011;38158;53.338;6.514;2023-05-10T07:46:25;3.85;;;2.53;;
52180;SDS011;38158;53.338;6.514;2023-05-10T07:48:50;3.78;;;2.38;;
52180;SDS011;38158;53.338;6.514;2023-05-10T07:51:16;3.67;;;2.50;;
52180;SDS011;38158;53.338;6.514;2023-05-10T07:53:42;3.72;;;2.38;;
52180;SDS011;38158;53.338;6.514;2023-05-10T07:56:21;3.92;;;2.60;;
52180;SDS011;38158;53.338;6.514;2023-05-10T07:58:54;3.85;;;2.30;;
52180;SDS011;38158;53.338;6.514;2023-05-10T08:01:30;3.30;;;1.70;;
52180;SDS011;38158;53.338;6.514;2023-05-10T08:04:00;2.92;;;2.00;;
52180;SDS011;38158;53.338;6.514;2023-05-10T08:06:26;2.65;;;1.80;;
52180;SDS011;38158;53.338;6.514;2023-05-10T08:08:53;3.65;;;2.10;;
52180;SDS011;38158;53.338;6.514;2023-05-10T08:11:22;5.22;;;2.78;;
52180;SDS011;38158;53.338;6.514;2023-05-10T08:13:48;4.40;;;2.67;;
52180;SDS011;38158;53.338;6.514;2023-05-10T08:16:15;3.42;;;2.00;;
52180;SDS011;38158;53.338;6.514;2023-05-10T08:18:43;3.90;;;2.22;;
52180;SDS011;38158;53.338;6.514;2023-05-10T08:21:10;3.15;;;1.80;;
52180;SDS011;38158;53.338;6.514;2023-05-10T08:23:36;3.40;;;1.93;;
52180;SDS011;38158;53.338;6.514;2023-05-10T08:26:02;5.10;;;2.20;;
52180;SDS011;38158;53.338;6.514;2023-05-10T08:28:28;4.28;;;2.13;;
52180;SDS011;38158;53.338;6.514;2023-05-10T08:30:53;3.67;;;1.45;;
52180;SDS011;38158;53.338;6.514;2023-05-10T08:33:19;3.53;;;1.85;;
52180;SDS011;38158;53.338;6.514;2023-05-10T08:35:45;3.00;;;1.33;;
52180;SDS011;38158;53.338;6.514;2023-05-10T08:38:11;2.95;;;1.52;;
52180;SDS011;38158;53.338;6.514;2023-05-10T08:40:37;1.65;;;0.80;;
52180;SDS011;38158;53.338;6.514;2023-05-10T08:43:06;1.55;;;0.60;;
52180;SDS011;38158;53.338;6.514;2023-05-10T08:45:38;2.20;;;0.50;;
52180;SDS011;38158;53.338;6.514;2023-05-10T08:48:06;1.27;;;0.50;;
52180;SDS011;38158;53.338;6.514;2023-05-10T08:50:40;1.75;;;0.82;;
52180;SDS011;38158;53.338;6.514;2023-05-10T08:53:09;3.03;;;1.10;;
52180;SDS011;38158;53.338;6.514;2023-05-10T08:55:36;2.17;;;0.90;;
52180;SDS011;38158;53.338;6.514;2023-05-10T08:58:04;2.90;;;1.10;;
52180;SDS011;38158;53.338;6.514;2023-05-10T09:00:30;2.88;;;1.20;;
52180;SDS011;38158;53.338;6.514;2023-05-10T09:03:00;5.43;;;2.00;;
52180;SDS011;38158;53.338;6.514;2023-05-10T09:05:26;3.47;;;1.70;;
52180;SDS011;38158;53.338;6.514;2023-05-10T09:07:52;3.88;;;2.22;;
52180;SDS011;38158;53.338;6.514;2023-05-10T09:10:19;2.45;;;1.55;;
52180;SDS011;38158;53.338;6.514;2023-05-10T09:12:45;2.08;;;1.35;;
52180;SDS011;38158;53.338;6.514;2023-05-10T09:15:12;3.05;;;1.75;;
52180;SDS011;38158;53.338;6.514;2023-05-10T09:17:41;4.10;;;2.22;;
52180;SDS011;38158;53.338;6.514;2023-05-10T09:20:09;6.13;;;2.53;;
52180;SDS011;38158;53.338;6.514;2023-05-10T09:22:35;4.93;;;2.47;;
52180;SDS011;38158;53.338;6.514;2023-05-10T09:25:07;3.90;;;2.08;;
52180;SDS011;38158;53.338;6.514;2023-05-10T09:27:36;3.47;;;1.83;;
52180;SDS011;38158;53.338;6.514;2023-05-10T09:30:03;3.85;;;2.10;;
52180;SDS011;38158;53.338;6.514;2023-05-10T09:35:06;2.97;;;1.45;;
52180;SDS011;38158;53.338;6.514;2023-05-10T09:37:36;3.75;;;1.90;;
52180;SDS011;38158;53.338;6.514;2023-05-10T09:40:05;6.05;;;2.63;;
52180;SDS011;38158;53.338;6.514;2023-05-10T09:42:33;3.78;;;1.70;;
52180;SDS011;38158;53.338;6.514;2023-05-10T09:45:03;2.97;;;1.60;;
52180;SDS011;38158;53.338;6.514;2023-05-10T09:47:31;2.47;;;1.45;;
52180;SDS011;38158;53.338;6.514;2023-05-10T09:49:58;3.80;;;1.88;;
52180;SDS011;38158;53.338;6.514;2023-05-10T09:52:29;2.50;;;1.40;;
52180;SDS011;38158;53.338;6.514;2023-05-10T09:54:55;3.83;;;1.80;;
52180;SDS011;38158;53.338;6.514;2023-05-10T09:57:21;2.42;;;1.00;;
52180;SDS011;38158;53.338;6.514;2023-05-10T09:59:48;2.90;;;1.65;;
52180;SDS011;38158;53.338;6.514;2023-05-10T10:02:15;3.67;;;1.90;;
52180;SDS011;38158;53.338;6.514;2023-05-10T10:04:41;2.70;;;1.30;;
52180;SDS011;38158;53.338;6.514;2023-05-10T10:07:07;4.25;;;1.85;;
52180;SDS011;38158;53.338;6.514;2023-05-10T10:09:34;2.65;;;1.02;;
52180;SDS011;38158;53.338;6.514;2023-05-10T10:12:00;3.50;;;1.60;;
52180;SDS011;38158;53.338;6.514;2023-05-10T10:14:27;2.40;;;1.20;;
52180;SDS011;38158;53.338;6.514;2023-05-10T10:16:53;2.90;;;1.20;;
52180;SDS011;38158;53.338;6.514;2023-05-10T10:19:20;1.65;;;0.90;;
52180;SDS011;38158;53.338;6.514;2023-05-10T10:21:46;1.80;;;0.82;;
52180;SDS011;38158;53.338;6.514;2023-05-10T10:24:12;1.67;;;0.70;;
52180;SDS011;38158;53.338;6.514;2023-05-10T10:26:38;2.00;;;0.60;;
52180;SDS011;38158;53.338;6.514;2023-05-10T10:31:34;3.67;;;0.68;;
52180;SDS011;38158;53.338;6.514;2023-05-10T10:34:10;2.58;;;0.82;;
52180;SDS011;38158;53.338;6.514;2023-05-10T10:36:50;3.17;;;1.65;;
52180;SDS011;38158;53.338;6.514;2023-05-10T10:39:15;2.25;;;1.17;;
52180;SDS011;38158;53.338;6.514;2023-05-10T10:41:51;2.45;;;1.40;;
52180;SDS011;38158;53.338;6.514;2023-05-10T10:52:22;4.05;;;2.17;;
52180;SDS011;38158;53.338;6.514;2023-05-10T10:55:00;4.00;;;2.20;;
52180;SDS011;38158;53.338;6.514;2023-05-10T10:57:32;6.72;;;2.30;;
52180;SDS011;38158;53.338;6.514;2023-05-10T11:05:24;5.85;;;2.15;;
52180;SDS011;38158;53.338;6.514;2023-05-10T11:07:54;6.18;;;2.80;;
52180;SDS011;38158;53.338;6.514;2023-05-10T11:10:21;5.38;;;2.92;;
52180;SDS011;38158;53.338;6.514;2023-05-10T11:13:03;8.88;;;3.05;;
52180;SDS011;38158;53.338;6.514;2023-05-10T11:15:38;5.80;;;2.92;;
52180;SDS011;38158;53.338;6.514;2023-05-10T11:18:20;5.53;;;2.83;;
52180;SDS011;38158;53.338;6.514;2023-05-10T11:20:50;7.32;;;3.38;;
52180;SDS011;38158;53.338;6.514;2023-05-10T11:23:17;7.65;;;3.22;;
52180;SDS011;38158;53.338;6.514;2023-05-10T11:25:44;5.90;;;3.42;;
52180;SDS011;38158;53.338;6.514;2023-05-10T11:28:11;9.05;;;4.47;;
52180;SDS011;38158;53.338;6.514;2023-05-10T11:30:41;5.97;;;3.92;;
52180;SDS011;38158;53.338;6.514;2023-05-10T11:33:09;7.88;;;4.07;;
52180;SDS011;38158;53.338;6.514;2023-05-10T11:35:40;7.82;;;4.78;;
52180;SDS011;38158;53.338;6.514;2023-05-10T11:38:06;7.93;;;5.15;;
52180;SDS011;38158;53.338;6.514;2023-05-10T11:40:36;10.80;;;5.13;;
52180;SDS011;38158;53.338;6.514;2023-05-10T11:43:03;9.00;;;4.50;;
52180;SDS011;38158;53.338;6.514;2023-05-10T11:45:32;7.30;;;5.00;;
52180;SDS011;38158;53.338;6.514;2023-05-10T11:47:58;9.98;;;5.93;;
52180;SDS011;38158;53.338;6.514;2023-05-10T11:50:25;9.27;;;5.25;;
52180;SDS011;38158;53.338;6.514;2023-05-10T11:52:54;9.27;;;5.32;;
52180;SDS011;38158;53.338;6.514;2023-05-10T11:57:46;10.80;;;5.40;;
52180;SDS011;38158;53.338;6.514;2023-05-10T12:00:13;10.30;;;5.18;;
52180;SDS011;38158;53.338;6.514;2023-05-10T12:02:39;9.57;;;5.45;;
52180;SDS011;38158;53.338;6.514;2023-05-10T12:05:05;9.77;;;5.40;;
52180;SDS011;38158;53.338;6.514;2023-05-10T12:07:32;9.93;;;5.85;;
52180;SDS011;38158;53.338;6.514;2023-05-10T12:10:07;9.75;;;5.75;;
52180;SDS011;38158;53.338;6.514;2023-05-10T12:12:40;8.95;;;5.75;;
52180;SDS011;38158;53.338;6.514;2023-05-10T12:15:11;8.63;;;5.32;;
52180;SDS011;38158;53.338;6.514;2023-05-10T12:17:41;15.00;;;7.82;;
52180;SDS011;38158;53.338;6.514;2023-05-10T12:20:22;10.73;;;6.22;;
52180;SDS011;38158;53.338;6.514;2023-05-10T12:22:53;9.43;;;5.57;;
52180;SDS011;38158;53.338;6.514;2023-05-10T12:25:21;11.43;;;6.50;;
52180;SDS011;38158;53.338;6.514;2023-05-10T12:27:51;9.52;;;5.85;;
52180;SDS011;38158;53.338;6.514;2023-05-10T12:32:48;10.77;;;5.70;;
52180;SDS011;38158;53.338;6.514;2023-05-10T12:35:14;6.30;;;4.20;;
52180;SDS011;38158;53.338;6.514;2023-05-10T12:37:41;9.05;;;4.85;;
52180;SDS011;38158;53.338;6.514;2023-05-10T12:40:08;7.38;;;4.05;;
52180;SDS011;38158;53.338;6.514;2023-05-10T12:42:38;7.00;;;3.97;;
52180;SDS011;38158;53.338;6.514;2023-05-10T12:45:05;6.82;;;4.05;;
52180;SDS011;38158;53.338;6.514;2023-05-10T12:47:32;6.43;;;4.05;;
52180;SDS011;38158;53.338;6.514;2023-05-10T12:49:59;7.22;;;4.30;;
52180;SDS011;38158;53.338;6.514;2023-05-10T12:52:27;6.13;;;3.47;;
52180;SDS011;38158;53.338;6.514;2023-05-10T12:54:53;5.18;;;3.00;;
52180;SDS011;38158;53.338;6.514;2023-05-10T12:57:21;7.40;;;3.58;;
52180;SDS011;38158;53.338;6.514;2023-05-10T12:59:47;6.43;;;3.72;;
52180;SDS011;38158;53.338;6.514;2023-05-10T13:02:13;6.00;;;3.53;;
52180;SDS011;38158;53.338;6.514;2023-05-10T13:04:40;6.10;;;3.07;;
52180;SDS011;38158;53.338;6.514;2023-05-10T13:07:06;4.93;;;2.55;;
52180;SDS011;38158;53.338;6.514;2023-05-10T13:09:32;4.90;;;2.80;;
52180;SDS011;38158;53.338;6.514;2023-05-10T13:11:58;7.55;;;3.50;;
52180;SDS011;38158;53.338;6.514;2023-05-10T13:14:24;5.32;;;3.53;;
52180;SDS011;38158;53.338;6.514;2023-05-10T13:16:50;6.50;;;3.95;;
52180;SDS011;38158;53.338;6.514;2023-05-10T13:19:16;5.82;;;3.58;;
52180;SDS011;38158;53.338;6.514;2023-05-10T13:21:42;6.20;;;2.40;;
52180;SDS011;38158;53.338;6.514;2023-05-10T13:24:11;4.53;;;2.17;;
52180;SDS011;38158;53.338;6.514;2023-05-10T13:26:40;5.80;;;2.10;;
52180;SDS011;38158;53.338;6.514;2023-05-10T13:29:06;4.47;;;1.83;;
52180;SDS011;38158;53.338;6.514;2023-05-10T13:31:33;3.90;;;1.70;;
52180;SDS011;38158;53.338;6.514;2023-05-10T13:33:59;3.25;;;2.03;;
52180;SDS011;38158;53.338;6.514;2023-05-10T13:36:24;3.70;;;2.08;;
52180;SDS011;38158;53.338;6.514;2023-05-10T13:38:50;4.35;;;2.47;;
52180;SDS011;38158;53.338;6.514;2023-05-10T13:41:16;3.83;;;2.47;;
52180;SDS011;38158;53.338;6.514;2023-05-10T13:43:41;4.15;;;2.28;;
52180;SDS011;38158;53.338;6.514;2023-05-10T13:46:07;4.82;;;2.88;;
52180;SDS011;38158;53.338;6.514;2023-05-10T13:48:33;6.13;;;3.50;;
52180;SDS011;38158;53.338;6.514;2023-05-10T13:50:58;6.95;;;4.40;;
52180;SDS011;38158;53.338;6.514;2023-05-10T13:53:24;7.25;;;4.72;;
52180;SDS011;38158;53.338;6.514;2023-05-10T13:55:50;7.50;;;4.72;;
52180;SDS011;38158;53.338;6.514;2023-05-10T13:58:16;9.07;;;5.63;;
52180;SDS011;38158;53.338;6.514;2023-05-10T14:00:41;10.88;;;6.10;;
52180;SDS011;38158;53.338;6.514;2023-05-10T14:03:07;11.63;;;7.18;;
52180;SDS011;38158;53.338;6.514;2023-05-10T14:05:35;11.27;;;6.85;;
52180;SDS011;38158;53.338;6.514;2023-05-10T14:08:01;13.52;;;7.40;;
52180;SDS011;38158;53.338;6.514;2023-05-10T14:10:27;12.15;;;7.63;;
52180;SDS011;38158;53.338;6.514;2023-05-10T14:12:53;12.65;;;7.60;;
52180;SDS011;38158;53.338;6.514;2023-05-10T14:15:19;13.00;;;8.10;;
52180;SDS011;38158;53.338;6.514;2023-05-10T14:17:44;12.85;;;7.97;;
52180;SDS011;38158;53.338;6.514;2023-05-10T14:20:10;11.88;;;8.32;;
52180;SDS011;38158;53.338;6.514;2023-05-10T14:22:36;12.68;;;9.20;;
52180;SDS011;38158;53.338;6.514;2023-05-10T14:25:02;13.38;;;8.45;;
52180;SDS011;38158;53.338;6.514;2023-05-10T14:27:28;12.88;;;9.38;;
52180;SDS011;38158;53.338;6.514;2023-05-10T14:29:54;11.43;;;8.10;;
52180;SDS011;38158;53.338;6.514;2023-05-10T14:32:19;14.25;;;8.38;;
52180;SDS011;38158;53.338;6.514;2023-05-10T14:34:45;13.60;;;8.25;;
52180;SDS011;38158;53.338;6.514;2023-05-10T14:37:11;15.77;;;9.18;;
52180;SDS011;38158;53.338;6.514;2023-05-10T14:39:38;14.18;;;8.80;;
52180;SDS011;38158;53.338;6.514;2023-05-10T14:42:04;13.40;;;8.70;;
52180;SDS011;38158;53.338;6.514;2023-05-10T14:44:29;11.88;;;7.32;;
52180;SDS011;38158;53.338;6.514;2023-05-10T14:46:55;11.15;;;6.97;;
52180;SDS011;38158;53.338;6.514;2023-05-10T14:49:21;9.75;;;6.22;;
52180;SDS011;38158;53.338;6.514;2023-05-10T14:51:49;9.32;;;6.40;;
52180;SDS011;38158;53.338;6.514;2023-05-10T14:54:15;9.93;;;6.72;;
52180;SDS011;38158;53.338;6.514;2023-05-10T14:56:41;8.27;;;5.90;;
52180;SDS011;38158;53.338;6.514;2023-05-10T14:59:07;7.60;;;5.32;;
52180;SDS011;38158;53.338;6.514;2023-05-10T15:01:33;8.10;;;4.75;;
52180;SDS011;38158;53.338;6.514;2023-05-10T15:04:02;6.68;;;4.50;;
52180;SDS011;38158;53.338;6.514;2023-05-10T15:06:31;7.18;;;4.53;;
52180;SDS011;38158;53.338;6.514;2023-05-10T15:08:58;6.65;;;4.50;;
52180;SDS011;38158;53.338;6.514;2023-05-10T15:11:24;7.57;;;4.20;;
52180;SDS011;38158;53.338;6.514;2023-05-10T15:13:50;6.03;;;3.92;;
52180;SDS011;38158;53.338;6.514;2023-05-10T15:16:16;5.78;;;3.83;;
52180;SDS011;38158;53.338;6.514;2023-05-10T15:18:42;6.65;;;4.50;;
52180;SDS011;38158;53.338;6.514;2023-05-10T15:21:07;5.20;;;3.20;;
52180;SDS011;38158;53.338;6.514;2023-05-10T15:23:33;6.40;;;3.30;;
52180;SDS011;38158;53.338;6.514;2023-05-10T15:25:59;4.35;;;2.88;;
52180;SDS011;38158;53.338;6.514;2023-05-10T15:28:25;5.03;;;2.90;;
52180;SDS011;38158;53.338;6.514;2023-05-10T15:30:51;4.60;;;2.63;;
52180;SDS011;38158;53.338;6.514;2023-05-10T15:33:17;4.20;;;2.97;;
52180;SDS011;38158;53.338;6.514;2023-05-10T15:35:43;5.30;;;3.35;;
52180;SDS011;38158;53.338;6.514;2023-05-10T15:38:09;4.15;;;2.58;;
52180;SDS011;38158;53.338;6.514;2023-05-10T15:40:35;4.00;;;2.33;;
52180;SDS011;38158;53.338;6.514;2023-05-10T15:43:00;7.50;;;3.30;;
52180;SDS011;38158;53.338;6.514;2023-05-10T15:45:26;4.53;;;3.05;;